Time;durP1;ratioP1;P1;durP2;ratioP2;P2;SDS_P1;SDS_P2;PMS_P1;PMS_P2;Temp;Humidity;BMP_temperature;BMP_pressure;BME280_temperature;BME280_humidity;BME280_pressure;Samples;Min_cycle;Max_cycle;Signal;HPM_P1;HPM_P2
2022/03/19 00:01:28;;;;;;;5.43;4.90;;;;;;;18.89;39.59;102534.22;5068485;28;20028;-43
2022/03/19 00:03:54;;;;;;;5.32;4.82;;;;;;;18.88;39.61;102540.47;5065988;28;20114;-41
2022/03/19 00:06:20;;;;;;;6.85;5.20;;;;;;;18.88;39.39;102535.19;5061981;28;20048;-41
2022/03/19 00:08:46;;;;;;;5.20;4.78;;;;;;;18.88;39.41;102551.03;5063256;28;20020;-45
2022/03/19 00:11:12;;;;;;;5.53;4.85;;;;;;;18.89;39.53;102554.50;5064232;28;20031;-43
2022/03/19 00:13:37;;;;;;;7.85;4.60;;;;;;;18.88;39.55;102548.41;5064636;28;20024;-42
2022/03/19 00:16:03;;;;;;;4.38;4.00;;;;;;;18.88;39.47;102548.41;5068546;28;20044;-47
2022/03/19 00:18:30;;;;;;;5.40;4.88;;;;;;;18.88;39.33;102542.28;5070074;28;20040;-42
2022/03/19 00:20:55;;;;;;;5.53;5.03;;;;;;;18.86;39.07;102534.50;5061603;28;20473;-46
2022/03/19 00:23:21;;;;;;;4.95;4.47;;;;;;;18.86;39.26;102549.53;5058272;28;20566;-41
2022/03/19 00:25:46;;;;;;;5.70;5.13;;;;;;;18.86;39.16;102550.34;5055217;28;20043;-43
2022/03/19 00:28:12;;;;;;;5.28;4.85;;;;;;;18.84;39.07;102543.56;5069847;28;20123;-41
2022/03/19 00:30:38;;;;;;;5.90;5.40;;;;;;;18.83;39.18;102553.28;5050236;28;20107;-42
2022/03/19 00:33:03;;;;;;;5.95;5.43;;;;;;;18.82;39.08;102529.66;5054818;28;20430;-43
2022/03/19 00:35:29;;;;;;;5.22;4.47;;;;;;;18.82;39.33;102540.22;5064411;28;20040;-43
2022/03/19 00:37:55;;;;;;;5.80;5.30;;;;;;;18.81;39.16;102536.75;5067474;28;20152;-40
2022/03/19 00:40:22;;;;;;;5.57;5.07;;;;;;;18.81;39.21;102536.75;5064879;28;20086;-45
2022/03/19 00:42:48;;;;;;;5.53;5.03;;;;;;;18.79;39.14;102538.72;5062325;28;20045;-41
2022/03/19 00:45:14;;;;;;;5.82;5.03;;;;;;;18.79;39.05;102536.06;5066834;28;20514;-40
2022/03/19 00:47:40;;;;;;;6.32;5.68;;;;;;;18.78;39.13;102529.13;5067153;28;20102;-45
2022/03/19 00:50:07;;;;;;;7.22;5.80;;;;;;;18.77;38.97;102540.69;5066480;28;20036;-43
2022/03/19 00:52:33;;;;;;;5.35;4.88;;;;;;;18.76;38.78;102543.47;5067407;28;20438;-42
2022/03/19 00:54:59;;;;;;;5.43;4.93;;;;;;;18.76;38.78;102543.47;5064314;28;20568;-41
2022/03/19 00:57:25;;;;;;;4.80;4.40;;;;;;;18.75;38.94;102547.09;5063353;28;20036;-43
2022/03/19 00:59:50;;;;;;;5.55;4.97;;;;;;;18.74;39.01;102538.31;5064510;28;20016;-42
2022/03/19 01:02:16;;;;;;;5.85;5.10;;;;;;;18.74;39.03;102527.75;5068004;28;20036;-43
2022/03/19 01:04:42;;;;;;;5.28;4.78;;;;;;;18.72;39.09;102535.00;5046093;28;20055;-43
2022/03/19 01:07:07;;;;;;;5.80;5.30;;;;;;;18.72;38.81;102545.56;5060941;28;20016;-43
2022/03/19 01:09:33;;;;;;;5.88;5.38;;;;;;;18.70;38.55;102534.31;5064529;28;20123;-43
2022/03/19 01:11:58;;;;;;;6.43;5.30;;;;;;;18.70;38.61;102533.50;5063915;28;20396;-43
2022/03/19 01:14:24;;;;;;;5.70;5.10;;;;;;;18.70;38.89;102531.69;5063855;28;20111;-44
2022/03/19 01:16:49;;;;;;;5.45;4.95;;;;;;;18.70;38.89;102534.31;5065711;28;20024;-42
2022/03/19 01:19:52;;;;;;;4.93;4.53;;;;;;;18.71;39.04;102535.16;5065128;28;20047;-43
2022/03/19 01:22:00;;;;;;;5.88;5.30;;;;;;;18.68;39.12;102533.63;5061034;28;20049;-46
2022/03/19 01:24:26;;;;;;;7.10;5.38;;;;;;;18.70;39.03;102534.31;5064525;28;20120;-41
2022/03/19 01:26:51;;;;;;;5.35;4.85;;;;;;;18.70;39.04;102533.50;5067075;28;20070;-42
2022/03/19 01:29:17;;;;;;;5.35;4.85;;;;;;;18.71;39.01;102540.44;5064913;28;20028;-40
2022/03/19 01:31:42;;;;;;;5.20;4.55;;;;;;;18.70;39.17;102530.84;5064081;28;20797;-39
2022/03/19 01:34:08;;;;;;;5.22;4.72;;;;;;;18.70;39.12;102525.56;5066636;28;20094;-40
2022/03/19 01:36:33;;;;;;;5.95;5.35;;;;;;;18.68;38.99;102528.34;5060502;28;20021;-44
2022/03/19 01:38:59;;;;;;;6.15;5.55;;;;;;;18.69;39.00;102531.81;5064858;28;20064;-42
2022/03/19 01:41:24;;;;;;;5.57;4.93;;;;;;;18.68;38.98;102532.81;5054720;28;20030;-40
2022/03/19 01:43:50;;;;;;;5.43;5.03;;;;;;;18.68;38.96;102523.06;5063647;28;20020;-40
2022/03/19 01:46:15;;;;;;;5.55;4.57;;;;;;;18.69;39.06;102524.72;5062954;28;20538;-45
2022/03/19 01:48:41;;;;;;;4.68;4.28;;;;;;;18.68;39.01;102528.34;5061890;28;20087;-46
2022/03/19 01:51:06;;;;;;;5.43;4.93;;;;;;;18.70;39.05;102526.41;5062302;28;20024;-44
2022/03/19 01:53:32;;;;;;;5.43;4.53;;;;;;;18.70;39.10;102522.94;5059852;28;20033;-39
2022/03/19 01:55:58;;;;;;;5.13;4.63;;;;;;;18.70;39.08;102521.13;5063753;28;20036;-42
2022/03/19 01:58:24;;;;;;;5.57;5.07;;;;;;;18.69;39.00;102508.91;5061367;28;20078;-43
2022/03/19 02:00:50;;;;;;;5.53;4.97;;;;;;;18.70;39.04;102510.56;5063710;28;20131;-40
2022/03/19 02:03:15;;;;;;;5.03;4.53;;;;;;;18.70;39.01;102515.84;5028206;28;20025;-40
2022/03/19 02:05:41;;;;;;;5.97;5.38;;;;;;;18.70;38.71;102510.56;5065872;28;20459;-40
2022/03/19 02:08:07;;;;;;;6.20;5.60;;;;;;;18.70;38.84;102513.19;5064023;28;20063;-44
2022/03/19 02:13:07;;;;;;;5.57;4.82;;;;;;;18.69;38.83;102508.06;5103428;22;20067;-42
2022/03/19 02:15:33;;;;;;;5.72;5.22;;;;;;;18.69;38.89;102513.34;5063216;28;20037;-40
2022/03/19 02:17:58;;;;;;;4.78;4.38;;;;;;;18.68;39.05;102504.59;5062394;28;20025;-43
2022/03/19 02:20:24;;;;;;;5.25;4.75;;;;;;;18.67;38.95;102502.94;5047701;28;20021;-41
2022/03/19 02:25:37;;;;;;;5.45;4.90;;;;;;;18.65;39.00;102496.97;5066998;28;20137;-43
2022/03/19 02:28:05;;;;;;;5.55;5.05;;;;;;;18.66;38.95;102497.78;5057567;28;20146;-42
2022/03/19 02:30:31;;;;;;;5.45;4.90;;;;;;;18.65;38.74;102483.75;5048424;28;20085;-39
2022/03/19 02:32:57;;;;;;;4.57;4.18;;;;;;;18.65;38.88;102475.00;5067412;28;20422;-39
2022/03/19 02:35:23;;;;;;;5.15;4.75;;;;;;;18.65;38.96;102485.56;5061777;28;20025;-43
2022/03/19 02:37:50;;;;;;;5.35;4.85;;;;;;;18.65;38.92;102475.84;5047226;28;20029;-44
2022/03/19 02:40:20;;;;;;;5.10;4.68;;;;;;;18.64;38.78;102479.47;5046278;28;20020;-42
2022/03/19 02:42:48;;;;;;;5.57;5.05;;;;;;;18.65;39.00;102464.44;5062748;28;20475;-39
2022/03/19 02:45:14;;;;;;;5.15;4.65;;;;;;;18.63;38.82;102477.81;5065610;28;20059;-41
2022/03/19 02:47:57;;;;;;;5.32;4.82;;;;;;;18.64;38.79;102486.56;5065789;28;20428;-42
2022/03/19 02:50:27;;;;;;;5.22;4.80;;;;;;;18.61;38.69;102453.34;5066173;28;20040;-43
2022/03/19 02:52:54;;;;;;;6.07;5.47;;;;;;;18.60;38.68;102472.81;5066838;28;20036;-41
2022/03/19 02:55:19;;;;;;;5.13;4.68;;;;;;;18.60;38.77;102466.66;5055347;28;20116;-44
2022/03/19 02:57:45;;;;;;;5.05;4.65;;;;;;;18.59;39.03;102465.84;5054440;28;20021;-40
2022/03/19 03:00:10;;;;;;;5.97;5.10;;;;;;;18.60;38.69;102482.50;5047116;28;20124;-42
2022/03/19 03:02:36;;;;;;;5.57;4.97;;;;;;;18.57;38.72;102458.06;5046420;28;20086;-41
2022/03/19 03:05:01;;;;;;;5.95;5.30;;;;;;;18.58;38.53;102461.53;5046928;28;20033;-43
2022/03/19 03:07:27;;;;;;;4.72;4.32;;;;;;;18.56;38.49;102460.84;5046121;28;20075;-41
2022/03/19 03:09:52;;;;;;;5.43;4.93;;;;;;;18.55;38.41;102457.38;5046016;28;20025;-42
2022/03/19 03:12:17;;;;;;;5.90;5.40;;;;;;;18.54;38.45;102458.38;5046905;28;20049;-40
2022/03/19 03:14:43;;;;;;;5.63;5.10;;;;;;;18.55;38.59;102470.59;5048777;28;20020;-44
2022/03/19 03:17:08;;;;;;;5.10;4.70;;;;;;;18.53;38.44;102451.44;5065948;28;20028;-42
2022/03/19 03:19:35;;;;;;;5.82;5.22;;;;;;;18.52;38.67;102460.31;5063134;28;20029;-44
2022/03/19 03:22:01;;;;;;;5.80;5.30;;;;;;;18.53;38.53;102466.44;5054892;28;20044;-43
2022/03/19 03:24:26;;;;;;;5.18;4.70;;;;;;;18.51;38.42;102469.22;5066062;28;20071;-47
2022/03/19 03:26:51;;;;;;;5.95;5.35;;;;;;;18.51;38.27;102455.19;5047648;28;20052;-41
2022/03/19 03:29:17;;;;;;;5.45;4.95;;;;;;;18.51;38.36;102471.03;5050362;28;20434;-42
2022/03/19 03:31:43;;;;;;;5.22;4.82;;;;;;;18.50;38.43;102466.72;5046113;28;20041;-45
2022/03/19 03:34:09;;;;;;;5.63;5.13;;;;;;;18.48;38.40;102469.50;5046499;28;20029;-45
2022/03/19 03:36:35;;;;;;;5.80;5.30;;;;;;;18.48;38.39;102468.69;5054901;28;20119;-44
2022/03/19 03:39:00;;;;;;;5.72;5.22;;;;;;;18.49;38.42;102467.72;5066979;28;20105;-51
2022/03/19 03:41:26;;;;;;;5.43;4.68;;;;;;;18.49;38.59;102471.19;5052045;28;20464;-42
2022/03/19 03:43:51;;;;;;;5.32;4.82;;;;;;;18.49;38.53;102478.25;5053579;28;20024;-44
2022/03/19 03:46:17;;;;;;;5.45;5.05;;;;;;;18.49;38.34;102471.19;5066246;28;20275;-45
2022/03/19 03:48:42;;;;;;;5.20;4.70;;;;;;;18.50;38.47;102472.00;5047107;28;20284;-43
2022/03/19 03:51:11;;;;;;;5.50;5.00;;;;;;;18.49;38.48;102475.63;5046108;28;20040;-43
2022/03/19 03:53:37;;;;;;;5.63;5.05;;;;;;;18.50;38.44;102464.09;5046571;28;20021;-44
2022/03/19 03:56:04;;;;;;;5.88;5.38;;;;;;;18.50;38.38;102477.28;5046950;28;20024;-43
2022/03/19 03:58:29;;;;;;;5.68;5.18;;;;;;;18.49;38.43;102471.19;5048132;28;20021;-40
2022/03/19 04:00:56;;;;;;;5.38;4.93;;;;;;;18.49;38.37;102468.53;5066439;28;20384;-43
2022/03/19 04:03:21;;;;;;;5.57;5.10;;;;;;;18.47;38.08;102470.50;5062369;28;20052;-42
2022/03/19 04:05:47;;;;;;;5.68;4.78;;;;;;;18.46;38.24;102465.34;5057748;28;20463;-42
2022/03/19 04:08:12;;;;;;;5.10;4.70;;;;;;;18.46;38.36;102466.19;5046332;28;20017;-40
2022/03/19 04:10:38;;;;;;;5.28;4.88;;;;;;;18.47;38.43;102467.03;5045932;28;20510;-41
2022/03/19 04:13:03;;;;;;;5.53;5.03;;;;;;;18.46;38.46;102462.72;5045851;28;20201;-43
2022/03/19 04:15:29;;;;;;;4.60;3.97;;;;;;;18.47;39.01;102464.38;5057775;28;20036;-43
2022/03/19 04:17:55;;;;;;;4.88;4.40;;;;;;;18.47;39.19;102467.84;5046553;28;20544;-40
2022/03/19 04:20:22;;;;;;;7.53;4.43;;;;;;;18.50;39.21;102475.47;5046227;28;20036;-43
2022/03/19 04:22:48;;;;;;;5.35;4.85;;;;;;;18.50;39.20;102472.84;5044509;28;20080;-43
2022/03/19 04:25:18;;;;;;;5.75;5.25;;;;;;;18.50;39.10;102472.00;5045526;28;20032;-44
2022/03/19 04:27:46;;;;;;;8.45;4.22;;;;;;;18.51;39.07;102473.66;5046028;28;20047;-41
2022/03/19 04:30:13;;;;;;;5.22;4.38;;;;;;;18.50;39.07;102472.84;5060401;28;20101;-44
2022/03/19 04:32:43;;;;;;;5.72;5.18;;;;;;;18.50;39.05;102475.47;5064415;28;20045;-45
2022/03/19 04:37:56;;;;;;;4.50;4.10;;;;;;;18.49;39.05;102468.53;5046434;28;20048;-42
2022/03/19 04:40:22;;;;;;;5.30;4.78;;;;;;;18.50;38.92;102472.00;5058892;28;20094;-44
2022/03/19 04:42:47;;;;;;;7.22;5.88;;;;;;;18.49;38.83;102480.91;5049210;28;20021;-45
2022/03/19 04:45:13;;;;;;;5.68;5.10;;;;;;;18.47;38.83;102478.41;5062443;28;20032;-43
2022/03/19 04:47:40;;;;;;;5.55;4.80;;;;;;;18.47;38.80;102481.06;5060214;28;20442;-43
2022/03/19 04:50:06;;;;;;;5.22;4.72;;;;;;;18.46;38.72;102471.47;5049427;28;20372;-41
2022/03/19 04:52:32;;;;;;;5.63;4.65;;;;;;;18.47;38.86;102482.84;5042556;28;20029;-39
2022/03/19 04:55:00;;;;;;;5.15;4.57;;;;;;;18.47;38.79;102477.56;5049292;28;20029;-43
2022/03/19 04:57:29;;;;;;;5.50;5.00;;;;;;;18.46;38.64;102479.38;5055173;28;20074;-41
2022/03/19 04:59:55;;;;;;;4.97;4.50;;;;;;;18.47;38.72;102472.31;5047756;28;20032;-42
2022/03/19 05:02:24;;;;;;;5.38;4.88;;;;;;;18.46;38.77;102474.09;5049222;28;20316;-44
2022/03/19 05:04:54;;;;;;;4.45;4.05;;;;;;;18.46;38.68;102476.75;5049975;28;20037;-42
2022/03/19 05:07:24;;;;;;;4.90;4.50;;;;;;;18.46;38.65;102474.09;5050187;28;20029;-41
2022/03/19 05:12:44;;;;;;;5.35;4.85;;;;;;;18.42;38.67;102482.50;5053207;28;20101;-40
2022/03/19 05:15:15;;;;;;;5.00;4.55;;;;;;;18.42;38.67;102474.56;5063478;28;20039;-43
2022/03/19 05:17:41;;;;;;;5.65;5.15;;;;;;;18.43;38.50;102469.13;5069080;28;20051;-43
2022/03/19 05:20:08;;;;;;;6.50;5.55;;;;;;;18.43;38.49;102473.59;5053112;28;20135;-43
2022/03/19 05:22:34;;;;;;;5.45;4.97;;;;;;;18.41;38.50;102468.47;5064236;28;20109;-41
2022/03/19 05:25:00;;;;;;;4.95;4.53;;;;;;;18.43;38.44;102476.25;5068815;28;20032;-41
2022/03/19 05:27:25;;;;;;;5.50;4.97;;;;;;;18.40;38.37;102464.16;5049046;28;20171;-43
2022/03/19 05:29:51;;;;;;;6.25;5.60;;;;;;;18.39;38.46;102459.88;5050611;28;20104;-39
2022/03/19 05:32:18;;;;;;;5.60;5.10;;;;;;;18.39;38.50;102464.31;5056046;28;20031;-44
2022/03/19 05:34:44;;;;;;;5.25;4.75;;;;;;;18.39;38.48;102469.59;5064511;28;20033;-38
2022/03/19 05:37:10;;;;;;;6.25;5.68;;;;;;;18.38;38.43;102460.84;5068816;28;20067;-39
2022/03/19 05:39:36;;;;;;;6.03;5.43;;;;;;;18.38;38.38;102465.28;5058203;28;20559;-43
2022/03/19 05:42:03;;;;;;;4.35;3.95;;;;;;;18.38;38.44;102462.66;5052081;28;20033;-41
2022/03/19 05:44:28;;;;;;;4.65;4.22;;;;;;;18.36;38.47;102457.53;5066814;28;20032;-45
2022/03/19 05:46:54;;;;;;;6.13;5.03;;;;;;;18.35;38.53;102463.78;5048900;28;20380;-45
2022/03/19 05:49:19;;;;;;;5.97;4.97;;;;;;;18.34;38.60;102456.84;5048815;28;20035;-41
2022/03/19 05:51:45;;;;;;;5.30;4.80;;;;;;;18.34;38.47;102456.00;5047747;28;20032;-39
2022/03/19 05:54:10;;;;;;;5.95;5.13;;;;;;;18.33;38.72;102451.72;5062030;28;20032;-41
2022/03/19 05:56:37;;;;;;;4.93;4.43;;;;;;;18.32;38.69;102463.25;5068175;28;20016;-40
2022/03/19 05:59:03;;;;;;;6.25;5.18;;;;;;;18.31;38.61;102453.66;5060515;28;20029;-43
2022/03/19 06:01:29;;;;;;;6.28;5.60;;;;;;;18.32;38.62;102460.59;5057117;28;20254;-42
2022/03/19 06:03:56;;;;;;;6.25;5.07;;;;;;;18.33;38.70;102465.72;5063172;28;20172;-39
2022/03/19 06:06:22;;;;;;;6.15;5.55;;;;;;;18.33;38.53;102456.97;5047819;28;20263;-39
2022/03/19 06:08:47;;;;;;;5.85;5.22;;;;;;;18.33;38.53;102459.63;5054914;28;20016;-44
2022/03/19 06:11:13;;;;;;;6.40;5.57;;;;;;;18.33;38.60;102460.44;5047934;28;20518;-43
2022/03/19 06:13:38;;;;;;;6.03;5.43;;;;;;;18.33;38.55;102449.06;5038675;28;20134;-44
2022/03/19 06:16:04;;;;;;;6.00;5.40;;;;;;;18.33;38.64;102443.78;5006814;28;20033;-40
2022/03/19 06:18:30;;;;;;;6.40;5.32;;;;;;;18.34;38.59;102450.72;5018040;28;20037;-42
2022/03/19 06:20:56;;;;;;;5.57;5.07;;;;;;;18.34;38.55;102442.81;5027930;28;20603;-40
2022/03/19 06:23:22;;;;;;;6.80;6.10;;;;;;;18.34;38.44;102434.91;5027987;28;20083;-42
2022/03/19 06:25:48;;;;;;;6.00;5.40;;;;;;;18.33;38.49;102433.22;5014239;28;20116;-42
2022/03/19 06:28:14;;;;;;;6.00;5.40;;;;;;;18.33;38.29;102438.50;5016122;28;20537;-42
2022/03/19 06:30:39;;;;;;;6.03;5.53;;;;;;;18.32;38.39;102426.28;5011356;28;20026;-42
2022/03/19 06:33:06;;;;;;;6.05;5.45;;;;;;;18.31;38.44;102429.91;5011833;28;20037;-42
2022/03/19 06:38:23;;;;;;;6.05;5.22;;;;;;;18.29;38.43;102418.69;5024226;28;20068;-42
2022/03/19 06:40:49;;;;;;;5.13;4.63;;;;;;;18.30;38.51;102404.50;5027213;28;20021;-43
2022/03/19 06:43:14;;;;;;;6.57;5.97;;;;;;;18.30;38.40;102413.25;5026411;28;20037;-40
2022/03/19 06:45:40;;;;;;;5.95;5.35;;;;;;;18.31;38.42;102416.72;5027414;28;20037;-41
2022/03/19 06:48:05;;;;;;;6.00;5.40;;;;;;;18.32;38.41;102410.47;5026440;28;20449;-43
2022/03/19 06:50:31;;;;;;;6.10;5.50;;;;;;;18.32;38.43;102415.75;5027253;28;20515;-43
2022/03/19 06:52:56;;;;;;;6.07;5.47;;;;;;;18.32;38.38;102415.75;5026507;28;20029;-43
2022/03/19 06:55:22;;;;;;;5.43;4.93;;;;;;;18.31;38.31;102408.81;5025210;28;20037;-42
2022/03/19 06:57:47;;;;;;;6.72;5.68;;;;;;;18.32;38.41;102406.00;5025034;28;20505;-45
2022/03/19 07:00:14;;;;;;;5.82;5.22;;;;;;;18.32;38.30;102413.94;5025514;28;20175;-40
2022/03/19 07:02:51;;;;;;;5.68;5.18;;;;;;;18.32;38.21;102402.53;5020371;28;20014;-40
2022/03/19 07:05:20;;;;;;;4.85;4.45;;;;;;;18.32;38.29;102402.53;5007603;28;20034;-46
2022/03/19 07:07:47;;;;;;;4.85;4.45;;;;;;;18.33;38.30;102404.22;5022329;28;20056;-41
2022/03/19 07:10:13;;;;;;;4.80;4.35;;;;;;;18.33;38.34;102401.56;5027229;28;20159;-43
2022/03/19 07:12:46;;;;;;;5.38;4.88;;;;;;;18.32;38.33;102399.91;5025962;28;20041;-44
2022/03/19 07:15:16;;;;;;;4.80;4.30;;;;;;;18.33;38.38;102398.94;5010046;28;20125;-42
2022/03/19 07:17:43;;;;;;;4.95;4.55;;;;;;;18.35;38.31;102387.25;5008152;28;20476;-43
2022/03/19 07:20:10;;;;;;;4.97;4.47;;;;;;;18.39;38.28;102387.78;5024629;28;20116;-43
2022/03/19 07:22:47;;;;;;;4.50;4.10;;;;;;;18.42;38.16;102390.13;5011190;28;20026;-48
2022/03/19 07:25:12;;;;;;;5.80;5.30;;;;;;;18.47;38.22;102393.13;5022700;28;20096;-45
2022/03/19 07:27:38;;;;;;;5.90;4.45;;;;;;;18.51;38.10;102389.19;5023288;28;20021;-46
2022/03/19 07:30:04;;;;;;;5.50;4.95;;;;;;;18.55;38.01;102386.13;5026121;28;20033;-44
2022/03/19 07:32:29;;;;;;;5.05;4.53;;;;;;;18.61;37.92;102384.72;5010660;28;20034;-42
2022/03/19 07:34:55;;;;;;;4.90;4.38;;;;;;;18.66;37.89;102386.91;5008589;28;20080;-43
2022/03/19 07:37:20;;;;;;;5.47;4.93;;;;;;;18.69;37.87;102383.97;5010853;28;20083;-43
2022/03/19 07:39:46;;;;;;;4.57;4.18;;;;;;;18.72;38.11;102381.84;5014081;28;20037;-46
2022/03/19 07:42:11;;;;;;;4.50;4.10;;;;;;;18.77;37.96;102382.25;5024950;28;20508;-46
2022/03/19 07:44:37;;;;;;;5.00;4.53;;;;;;;18.82;37.95;102385.25;5022637;28;20064;-44
2022/03/19 07:47:03;;;;;;;4.68;4.25;;;;;;;18.88;37.85;102386.47;5020800;28;20156;-43
2022/03/19 07:49:29;;;;;;;5.50;4.90;;;;;;;18.93;37.76;102378.06;5007261;28;20033;-44
2022/03/19 07:51:55;;;;;;;5.47;4.65;;;;;;;18.96;37.93;102378.56;5006778;28;20369;-43
2022/03/19 07:54:27;;;;;;;4.80;4.38;;;;;;;19.02;37.80;102370.03;5018195;28;20120;-42
2022/03/19 07:56:53;;;;;;;4.68;4.28;;;;;;;19.07;37.90;102372.22;5041320;28;20025;-43
2022/03/19 07:59:20;;;;;;;5.00;4.50;;;;;;;19.11;37.71;102365.66;5024246;28;20055;-44
2022/03/19 08:01:48;;;;;;;6.45;4.25;;;;;;;19.15;37.83;102362.53;5010800;28;20061;-42
2022/03/19 08:04:13;;;;;;;5.75;4.25;;;;;;;19.18;37.73;102356.97;5000170;28;20452;-46
2022/03/19 08:06:39;;;;;;;4.65;4.25;;;;;;;19.22;38.03;102362.75;5008703;28;20061;-42
2022/03/19 08:09:05;;;;;;;4.68;4.28;;;;;;;19.23;37.76;102359.13;5008827;28;20445;-44
2022/03/19 08:11:31;;;;;;;4.68;4.15;;;;;;;19.26;37.76;102361.47;5024675;28;20397;-49
2022/03/19 08:13:57;;;;;;;4.90;4.45;;;;;;;19.27;37.95;102360.47;5060395;28;20032;-40
2022/03/19 08:16:24;;;;;;;5.65;4.78;;;;;;;19.28;38.01;102366.59;5050703;28;20475;-47
2022/03/19 08:18:50;;;;;;;5.15;4.53;;;;;;;19.31;38.37;102353.91;5047784;28;20119;-47
2022/03/19 08:21:15;;;;;;;5.28;4.60;;;;;;;19.34;38.64;102355.41;5058376;28;20124;-41
2022/03/19 08:23:41;;;;;;;14.25;5.57;;;;;;;19.34;38.88;102364.16;5060321;28;20024;-43
2022/03/19 08:26:07;;;;;;;6.80;4.38;;;;;;;19.33;38.95;102362.50;5057062;28;20040;-42
2022/03/19 08:28:32;;;;;;;10.02;4.88;;;;;;;19.32;38.89;102368.78;5059193;28;20499;-45
2022/03/19 08:30:58;;;;;;;5.80;4.88;;;;;;;19.37;39.40;102358.56;5066598;28;20539;-41
2022/03/19 08:33:25;;;;;;;8.32;4.95;;;;;;;19.42;39.56;102331.63;5042152;28;20013;-46
2022/03/19 08:35:50;;;;;;;7.22;5.60;;;;;;;19.47;39.70;102334.63;5049949;28;20439;-45
2022/03/19 08:41:00;;;;;;;4.93;4.38;;;;;;;19.44;40.11;102341.06;5062077;28;20101;-44
2022/03/19 08:43:28;;;;;;;11.00;4.32;;;;;;;19.41;40.33;102349.31;5064078;28;20452;-40
2022/03/19 08:45:54;;;;;;;7.22;4.72;;;;;;;19.38;40.53;102346.97;5040125;28;20530;-41
2022/03/19 08:48:19;;;;;;;5.28;4.68;;;;;;;19.37;40.36;102341.88;5069287;28;20032;-44
2022/03/19 08:50:46;;;;;;;5.35;3.80;;;;;;;19.35;40.52;102342.03;5053941;28;20044;-44
2022/03/19 08:53:13;;;;;;;4.97;4.25;;;;;;;19.36;40.54;102334.94;5050828;28;20035;-38
2022/03/19 08:55:38;;;;;;;6.68;4.55;;;;;;;19.39;40.70;102350.44;5059723;28;20033;-40
2022/03/19 08:58:04;;;;;;;8.98;5.30;;;;;;;19.40;40.60;102341.53;5056392;28;20036;-42
2022/03/19 09:00:30;;;;;;;8.40;4.50;;;;;;;19.41;40.58;102340.56;5061046;28;20028;-46
2022/03/19 09:02:58;;;;;;;8.60;4.32;;;;;;;19.39;40.57;102340.72;5054370;28;20032;-41
2022/03/19 09:05:23;;;;;;;10.45;4.90;;;;;;;19.39;40.46;102331.94;5049160;28;20037;-43
2022/03/19 09:07:49;;;;;;;6.13;4.07;;;;;;;19.39;40.36;102324.84;5066087;28;20113;-40
2022/03/19 09:10:15;;;;;;;9.68;4.55;;;;;;;19.40;40.14;102320.41;5048339;28;20029;-45
2022/03/19 09:12:41;;;;;;;5.82;4.47;;;;;;;19.40;39.74;102315.94;5065075;28;20498;-46
2022/03/19 09:15:09;;;;;;;5.50;4.22;;;;;;;19.40;39.52;102297.44;5058217;28;20029;-42
2022/03/19 09:17:35;;;;;;;6.03;4.43;;;;;;;19.40;39.59;102323.88;5067301;28;20035;-40
2022/03/19 09:20:02;;;;;;;7.45;4.25;;;;;;;19.40;39.30;102323.88;5049342;28;20025;-39
2022/03/19 09:22:29;;;;;;;4.63;3.88;;;;;;;19.41;39.25;102330.81;5050604;28;20024;-42
2022/03/19 09:24:55;;;;;;;4.88;3.75;;;;;;;19.40;39.30;102326.50;5056045;28;20117;-38
2022/03/19 09:27:21;;;;;;;4.28;3.67;;;;;;;19.40;39.29;102331.78;5062773;28;20048;-40
2022/03/19 09:29:47;;;;;;;4.90;4.40;;;;;;;19.41;39.16;102324.69;5052422;28;20037;-40
2022/03/19 09:32:13;;;;;;;5.78;3.90;;;;;;;19.41;38.83;102314.13;5055250;28;20365;-42
2022/03/19 09:34:39;;;;;;;9.43;4.65;;;;;;;19.40;39.02;102313.28;5061507;28;20037;-41
2022/03/19 09:37:05;;;;;;;6.75;4.13;;;;;;;19.41;38.93;102316.75;5052877;28;20035;-40
2022/03/19 09:39:30;;;;;;;7.10;4.10;;;;;;;19.43;39.07;102309.50;5052623;28;20028;-40
2022/03/19 09:41:56;;;;;;;4.90;4.40;;;;;;;19.42;39.16;102284.88;5053086;28;20029;-43
2022/03/19 09:44:25;;;;;;;9.07;4.75;;;;;;;19.43;39.19;102296.28;5046596;28;20469;-39
2022/03/19 09:46:52;;;;;;;4.65;3.97;;;;;;;19.42;39.28;102299.91;5047290;28;20036;-41
2022/03/19 09:49:17;;;;;;;5.30;3.72;;;;;;;19.42;39.36;102310.50;5047523;28;20048;-42
2022/03/19 09:51:55;;;;;;;6.28;3.60;;;;;;;19.41;39.38;102309.66;5047532;28;20384;-43
2022/03/19 09:54:23;;;;;;;5.25;4.05;;;;;;;19.42;39.48;102313.13;5047656;28;20028;-40
2022/03/19 09:56:50;;;;;;;4.32;3.92;;;;;;;19.41;39.52;102288.53;5047574;28;20426;-41
2022/03/19 09:59:16;;;;;;;4.85;3.90;;;;;;;19.39;39.62;102301.06;5048509;28;20025;-39
2022/03/19 10:01:41;;;;;;;6.18;4.18;;;;;;;19.39;39.50;102309.00;5048067;28;20106;-40
2022/03/19 10:04:07;;;;;;;4.72;4.25;;;;;;;19.37;39.90;102303.06;5048127;28;20057;-40
2022/03/19 10:09:20;;;;;;;5.25;3.83;;;;;;;19.32;39.81;102308.00;5049817;28;20059;-40
2022/03/19 10:11:51;;;;;;;3.33;3.03;;;;;;;19.31;39.77;102292.28;5051250;28;20028;-47
2022/03/19 10:14:22;;;;;;;5.03;3.47;;;;;;;19.30;40.02;102298.56;5066983;28;20120;-41
2022/03/19 10:16:51;;;;;;;5.13;3.83;;;;;;;19.29;40.31;102305.66;5047770;28;20052;-42
2022/03/19 10:19:17;;;;;;;5.57;3.45;;;;;;;19.29;40.00;102307.47;5066839;28;20024;-39
2022/03/19 10:21:44;;;;;;;4.15;3.80;;;;;;;19.27;40.10;102302.34;5066657;28;20445;-41
2022/03/19 10:24:27;;;;;;;4.15;3.58;;;;;;;19.22;40.09;102296.69;5066842;28;20108;-43
2022/03/19 10:26:53;;;;;;;4.88;3.65;;;;;;;19.23;40.20;102290.44;5048890;28;20115;-41
2022/03/19 10:29:33;;;;;;;3.90;3.47;;;;;;;19.20;40.30;102291.56;5067700;28;20363;-46
2022/03/19 10:32:01;;;;;;;4.88;3.88;;;;;;;19.19;40.38;102294.38;5048457;28;20124;-43
2022/03/19 10:34:28;;;;;;;4.47;3.80;;;;;;;19.18;40.35;102292.72;5066604;28;20468;-42
2022/03/19 10:36:54;;;;;;;4.22;3.60;;;;;;;19.17;40.47;102289.25;5052429;28;20028;-40
2022/03/19 10:39:25;;;;;;;4.38;3.60;;;;;;;19.17;40.38;102281.31;5060357;28;20553;-44
2022/03/19 10:41:51;;;;;;;4.68;3.47;;;;;;;19.14;40.49;102281.63;5067751;28;20103;-43
2022/03/19 10:44:24;;;;;;;4.70;3.63;;;;;;;19.12;40.56;102283.59;5056315;28;20524;-42
2022/03/19 10:46:52;;;;;;;3.97;3.60;;;;;;;19.12;40.64;102273.03;5056591;28;20530;-40
2022/03/19 10:49:20;;;;;;;4.10;3.70;;;;;;;19.11;40.52;102271.38;5066341;28;20028;-44
2022/03/19 10:51:48;;;;;;;4.15;3.75;;;;;;;19.13;40.54;102258.00;5066801;28;20036;-43
2022/03/19 10:54:15;;;;;;;4.05;3.25;;;;;;;19.13;40.50;102258.84;5066189;28;20043;-40
2022/03/19 10:56:46;;;;;;;4.40;3.85;;;;;;;19.14;40.53;102260.50;5064803;28;20021;-43
2022/03/19 10:59:12;;;;;;;4.90;4.05;;;;;;;19.15;40.26;102246.28;5066329;28;20036;-41
2022/03/19 11:01:38;;;;;;;4.40;3.85;;;;;;;19.14;40.16;102255.22;5065355;28;20028;-42
2022/03/19 11:04:08;;;;;;;4.75;3.58;;;;;;;19.14;39.80;102259.66;5065809;28;20040;-44
2022/03/19 11:06:45;;;;;;;4.90;4.15;;;;;;;19.13;39.63;102252.72;5055701;28;20058;-40
2022/03/19 11:09:14;;;;;;;4.38;3.97;;;;;;;19.14;39.77;102249.09;5056048;28;20039;-43
2022/03/19 11:11:48;;;;;;;3.72;3.40;;;;;;;19.11;39.71;102244.13;5064827;28;20102;-39
2022/03/19 11:14:23;;;;;;;3.88;3.47;;;;;;;19.08;39.58;102242.63;5065829;28;20044;-40
2022/03/19 11:19:49;;;;;;;5.93;3.83;;;;;;;19.02;39.77;102235.31;5065969;28;20043;-41
2022/03/19 11:22:15;;;;;;;4.13;3.63;;;;;;;19.02;39.80;102229.22;5066115;28;20016;-41
2022/03/19 11:24:59;;;;;;;4.82;4.05;;;;;;;18.97;39.74;102231.50;5065666;28;20083;-44
2022/03/19 11:27:29;;;;;;;4.40;3.65;;;;;;;18.98;39.73;102225.22;5053855;28;20392;-43
2022/03/19 11:29:59;;;;;;;3.75;3.40;;;;;;;18.97;39.69;102227.03;5046568;28;20032;-39
2022/03/19 11:32:25;;;;;;;5.93;4.43;;;;;;;18.98;39.59;102222.59;5062492;28;20025;-42
2022/03/19 11:34:57;;;;;;;4.20;3.78;;;;;;;18.99;39.65;102221.59;5065176;28;20040;-43
2022/03/19 11:37:24;;;;;;;4.20;3.35;;;;;;;18.99;39.71;102222.44;5057859;28;20033;-41
2022/03/19 11:40:35;;;;;;;4.65;4.22;;;;;;;18.98;39.56;102217.31;5044162;28;20033;-41
2022/03/19 11:43:06;;;;;;;6.28;3.95;;;;;;;18.97;39.72;102208.56;5061788;28;20036;-43
2022/03/19 11:45:56;;;;;;;4.38;3.95;;;;;;;18.98;39.23;102209.38;5048901;28;20036;-39